createdAt,value
2022-10-19T08:51:36.769Z,7.93
2022-10-19T09:11:34.307Z,7.93
2022-10-19T09:39:29.840Z,7.60
2022-10-19T09:55:01.816Z,8.10
2022-10-19T10:29:15.826Z,7.73
2022-10-19T10:50:01.847Z,7.37
2022-10-19T11:29:44.987Z,8.00
2022-10-19T11:34:40.407Z,7.17
2022-10-19T11:39:13.827Z,6.73
2022-10-19T11:43:36.227Z,7.00
2022-10-19T11:48:01.384Z,7.43
2022-10-19T11:52:27.225Z,7.40
2022-10-19T11:57:03.307Z,7.67
2022-10-19T12:01:34.107Z,8.13
2022-10-19T12:05:56.964Z,8.37
2022-10-19T12:10:20.126Z,7.73
2022-10-19T12:14:40.500Z,8.13
2022-10-19T12:19:01.107Z,7.93
2022-10-19T12:23:27.187Z,7.60
2022-10-19T12:27:39.109Z,8.57
2022-10-19T12:31:51.047Z,8.07
2022-10-19T12:36:25.110Z,8.53
2022-10-19T12:40:40.366Z,8.03
2022-10-19T12:45:29.946Z,8.73
2022-10-19T12:49:50.826Z,8.70
2022-10-19T12:54:12.485Z,8.80
2022-10-19T12:58:27.126Z,9.87
2022-10-19T13:02:40.849Z,9.47
2022-10-19T13:06:54.346Z,8.50
2022-10-19T13:16:03.884Z,10.47
2022-10-19T13:25:42.828Z,9.37
2022-10-19T13:30:01.030Z,10.17
2022-10-19T13:34:22.888Z,10.33
2022-10-19T13:38:55.551Z,11.43
2022-10-19T13:43:40.548Z,10.53
2022-10-19T14:22:48.885Z,12.57
2022-10-19T14:27:10.010Z,12.17
2022-10-19T14:36:39.285Z,12.20
2022-10-19T14:41:12.467Z,12.77
2022-10-19T14:46:07.031Z,12.60
2022-10-19T15:00:03.755Z,9.60
2022-10-19T15:04:28.208Z,9.27
2022-10-19T15:55:33.105Z,3.40
2022-10-19T15:59:43.767Z,3.83
2022-10-19T16:03:55.745Z,3.33
2022-10-19T16:08:10.084Z,2.97
2022-10-19T16:12:52.144Z,3.33
2022-10-19T16:17:01.650Z,4.13
2022-10-19T16:21:12.924Z,3.80
2022-10-19T16:25:22.709Z,3.40
2022-10-19T16:29:33.765Z,3.43
2022-10-19T16:33:43.227Z,2.60
2022-10-19T16:37:52.885Z,2.43
2022-10-19T16:42:02.449Z,2.40
2022-10-19T16:46:14.032Z,2.40
2022-10-19T16:50:23.586Z,2.63
2022-10-19T16:54:33.086Z,2.37
2022-10-19T16:58:42.585Z,3.17
2022-10-19T17:02:57.226Z,2.27
2022-10-19T17:07:08.508Z,3.27
2022-10-19T17:11:21.525Z,2.43
2022-10-19T17:15:42.891Z,2.07
2022-10-19T17:19:54.626Z,2.67
2022-10-19T17:28:28.988Z,2.63
2022-10-19T17:32:38.306Z,2.13
2022-10-19T17:36:49.804Z,2.77
2022-10-19T17:41:04.368Z,3.07
2022-10-19T17:45:14.006Z,3.00
2022-10-19T17:49:23.628Z,2.67
2022-10-19T17:53:37.926Z,2.27
2022-10-19T17:57:50.468Z,2.17
2022-10-19T18:01:59.909Z,2.33
2022-10-19T18:06:11.432Z,2.43
2022-10-19T18:10:22.567Z,2.80
2022-10-19T18:14:33.229Z,2.77
2022-10-19T18:18:46.133Z,2.10
2022-10-19T18:23:22.147Z,2.63
2022-10-19T18:28:01.509Z,2.13
2022-10-19T18:32:11.048Z,3.00
2022-10-19T18:36:20.426Z,2.77
2022-10-19T18:40:30.486Z,2.13
2022-10-19T18:44:41.569Z,2.10
2022-10-19T18:48:51.390Z,3.23
2022-10-19T18:53:00.630Z,2.53
2022-10-19T18:57:10.046Z,3.07
2022-10-19T19:01:23.436Z,2.33
2022-10-19T19:05:35.201Z,2.80
2022-10-19T19:09:44.951Z,2.87
2022-10-19T19:13:59.928Z,2.70
2022-10-19T19:18:23.914Z,2.43
2022-10-19T19:22:36.792Z,3.20
2022-10-19T19:26:49.730Z,2.83
2022-10-19T19:31:04.687Z,2.83
2022-10-19T19:35:15.767Z,2.83
2022-10-19T19:44:09.306Z,3.10
2022-10-19T20:02:46.127Z,2.93
2022-10-19T20:07:15.247Z,2.93
2022-10-19T20:25:51.647Z,2.37
2022-10-19T20:30:01.849Z,2.97
2022-10-19T20:47:42.111Z,2.63
2022-10-19T20:51:51.750Z,3.27
2022-10-19T20:56:14.191Z,3.80
2022-10-19T21:00:24.127Z,3.90
2022-10-19T21:04:48.089Z,3.60
2022-10-19T21:09:43.965Z,2.50
2022-10-19T21:23:45.007Z,3.23
2022-10-19T21:27:56.469Z,3.47
2022-10-19T21:41:28.957Z,2.97
2022-10-19T21:45:48.381Z,3.50
2022-10-19T21:54:57.908Z,3.07
2022-10-19T21:59:29.064Z,3.40
2022-10-19T22:03:42.758Z,2.60
2022-10-19T22:07:53.082Z,2.87
2022-10-19T22:12:05.904Z,2.90
2022-10-19T22:16:33.009Z,2.87
2022-10-19T22:20:50.049Z,3.30
2022-10-19T22:25:17.711Z,3.87
2022-10-19T22:29:30.032Z,3.63
2022-10-19T22:33:41.767Z,3.53
2022-10-19T22:37:52.134Z,2.73
2022-10-19T22:47:33.273Z,2.63
2022-10-19T23:01:53.584Z,2.87
2022-10-19T23:16:17.387Z,2.40
2022-10-19T23:46:30.012Z,2.83
